Best, Texas
Current Conditions -  °F | °C
As of 11:35 PM on Sunday 21 Dec 2014 (Local Time) from KOZA Reporting Station
Overcast Overcast  
Wind Chill: 50°   Ceiling: 500
Heat Index: 50°   Visibility: 7mi
Dew Point: 46°   Wind: 13mph
Humidity: 87%   Direction: 200°SSW
Pressure: 29.83"   Gusts: 18mph
Location:  31.3662°N, 101.523°W
Report Text: KOZA 220535Z AUTO 20011G16KT 7SM OVC005 10/08 A2983 RMK AO2
Loading
Personal Weather Stations






























Interactive Weather Map New forecast layout! Learn more

10-Day Weather Forecast

Advertisements
Track Severe Weather on mobile